Rixford, PA (16745)

11:52 AM EDT on October 30, 2014 (GMT -0400)
Downtown Duke Center | Change Station
CLOSE
Current Station
Personal Weather Station
Location: Duke Center, PA
Elevation: 1604 ft
Nearby Weather Stations

Elev 1604 ft 41.95 °N, 78.48 °W | Updated 1 second ago

Overcast
Overcast
44.2 °F
Feels Like 44 °F
N
2.3
Wind Variable Wind from WSW
Gusts 2.3 mph

Today
High -- | Low -- °F
--% Chance of Precip.
Yesterday
High -- | Low -- °F
Precip. -- in
7:44 AM 6:10 PM
Waxing Crescent, 45% visible
Pressure 30.08 in
Visibility 10.0 miles
Clouds Mostly Cloudy 2100 ft
Overcast 2900 ft
Windchill 44 °F
Dew Point 41 °F
Humidity 88%
Rainfall 0.00 in
Snow Depth Not available.
UV 1 out of 12
Pollen .10 out of 12
Air Quality Not available.
Flu Activity Not available.
METAR KBFD 301453Z AUTO 31007KT 10SM BKN021 OVC029 05/01 A3005 RMK AO2 SLP184 60000 T00500011 51009

More Conditions Fewer Conditions

Pressure 30.08 in
Visibility 10.0 miles
Clouds Mostly Cloudy 2100 ft
Overcast 2900 ft
Windchill 44 °F
Dew Point 41 °F
Humidity 88%
Rainfall 0.00 in
Snow Depth Not available.
UV 1 out of 12
Pollen .10 out of 12
Air Quality Not available.
Flu Activity Not available.
METAR KBFD 301453Z AUTO 31007KT 10SM BKN021 OVC029 05/01 A3005 RMK AO2 SLP184 60000 T00500011 51009

More Conditions Fewer Conditions

10-Day Weather Forecast

Almanac

Astronomy

Oct. 30, 2014 Rise Set
Actual Time
Civil Twilight
Nautical Twilight
Astronomical Twilight
Moon
Length of Visible Light
Length of Day
Tomorrow will be .
, % of the Moon is Illuminated

Today's Extremes

State Highs State Lows

Community

WunderPhotos

Upload Photos

1,766,389 photos uploaded!

WunderBlogs® & News

Nearby

Air Quality

  Air Quality AQ Index Pollutant
Not available.

Snow Depth

Station Depth Elevation

Earthquake Activity

City Distance Mag. Time & Date
Minimum magnitude displayed is 2.5.

Coastal Water Temperatures

Place Temperature

Nearby Weather Stations